sensor_id;sensor_type;location;lat;lon;timestamp;temperature;humidity
10010;DHT22;5044;48.652;9.250;2023-03-16T00:00:40;-1.00;99.90
10010;DHT22;5044;48.652;9.250;2023-03-16T00:03:08;-1.10;99.90
10010;DHT22;5044;48.652;9.250;2023-03-16T00:05:35;-1.10;99.90
10010;DHT22;5044;48.652;9.250;2023-03-16T00:08:02;-1.10;99.90
10010;DHT22;5044;48.652;9.250;2023-03-16T00:10:29;-1.10;99.90
10010;DHT22;5044;48.652;9.250;2023-03-16T00:12:56;-1.10;99.90
10010;DHT22;5044;48.652;9.250;2023-03-16T00:15:23;-1.20;99.90
10010;DHT22;5044;48.652;9.250;2023-03-16T00:17:51;-1.20;99.90
10010;DHT22;5044;48.652;9.250;2023-03-16T00:20:19;-1.20;99.90
10010;DHT22;5044;48.652;9.250;2023-03-16T00:22:47;-1.30;99.90
10010;DHT22;5044;48.652;9.250;2023-03-16T00:25:14;-1.20;99.90
10010;DHT22;5044;48.652;9.250;2023-03-16T00:27:44;-1.20;99.90
10010;DHT22;5044;48.652;9.250;2023-03-16T00:30:11;-1.30;99.90
10010;DHT22;5044;48.652;9.250;2023-03-16T00:32:38;-1.30;99.90
10010;DHT22;5044;48.652;9.250;2023-03-16T00:35:08;-1.30;99.90
10010;DHT22;5044;48.652;9.250;2023-03-16T00:37:35;-1.30;99.90
10010;DHT22;5044;48.652;9.250;2023-03-16T00:40:04;-1.30;99.90
10010;DHT22;5044;48.652;9.250;2023-03-16T00:42:32;-1.30;99.90
10010;DHT22;5044;48.652;9.250;2023-03-16T00:45:00;-1.30;99.90
10010;DHT22;5044;48.652;9.250;2023-03-16T00:47:29;-1.20;99.90
10010;DHT22;5044;48.652;9.250;2023-03-16T00:49:58;-1.20;99.90
10010;DHT22;5044;48.652;9.250;2023-03-16T00:52:27;-1.10;99.90
10010;DHT22;5044;48.652;9.250;2023-03-16T00:54:55;-1.10;99.90
10010;DHT22;5044;48.652;9.250;2023-03-16T00:57:23;-1.30;99.90
10010;DHT22;5044;48.652;9.250;2023-03-16T00:59:52;-1.30;99.90
10010;DHT22;5044;48.652;9.250;2023-03-16T01:02:19;-1.40;99.90
10010;DHT22;5044;48.652;9.250;2023-03-16T01:04:47;-1.50;99.90
10010;DHT22;5044;48.652;9.250;2023-03-16T01:07:14;-1.50;99.90
10010;DHT22;5044;48.652;9.250;2023-03-16T01:09:42;-1.60;99.90
10010;DHT22;5044;48.652;9.250;2023-03-16T01:12:13;-1.60;99.90
10010;DHT22;5044;48.652;9.250;2023-03-16T01:14:42;-1.60;99.90
10010;DHT22;5044;48.652;9.250;2023-03-16T01:17:10;-1.70;99.90
10010;DHT22;5044;48.652;9.250;2023-03-16T01:19:38;-1.80;99.90
10010;DHT22;5044;48.652;9.250;2023-03-16T01:22:06;-1.80;99.90
10010;DHT22;5044;48.652;9.250;2023-03-16T01:24:34;-1.70;99.90
10010;DHT22;5044;48.652;9.250;2023-03-16T01:27:03;-1.80;99.90
10010;DHT22;5044;48.652;9.250;2023-03-16T01:29:30;-1.80;99.90
10010;DHT22;5044;48.652;9.250;2023-03-16T01:31:57;-1.80;99.90
10010;DHT22;5044;48.652;9.250;2023-03-16T01:34:24;-1.70;99.90
10010;DHT22;5044;48.652;9.250;2023-03-16T01:36:51;-1.70;99.90
10010;DHT22;5044;48.652;9.250;2023-03-16T01:39:18;-1.70;99.90
10010;DHT22;5044;48.652;9.250;2023-03-16T01:41:46;-1.60;99.90
10010;DHT22;5044;48.652;9.250;2023-03-16T01:44:18;-1.60;99.90
10010;DHT22;5044;48.652;9.250;2023-03-16T01:46:47;-1.70;99.90
10010;DHT22;5044;48.652;9.250;2023-03-16T01:49:16;-1.70;99.90
10010;DHT22;5044;48.652;9.250;2023-03-16T01:51:46;-1.80;99.90
10010;DHT22;5044;48.652;9.250;2023-03-16T01:54:22;-1.90;99.90
10010;DHT22;5044;48.652;9.250;2023-03-16T01:56:56;-1.90;99.90
10010;DHT22;5044;48.652;9.250;2023-03-16T01:59:29;-1.90;99.90
10010;DHT22;5044;48.652;9.250;2023-03-16T02:01:57;-1.90;99.90
10010;DHT22;5044;48.652;9.250;2023-03-16T02:04:47;-1.90;99.90
10010;DHT22;5044;48.652;9.250;2023-03-16T02:07:17;-1.90;99.90
10010;DHT22;5044;48.652;9.250;2023-03-16T02:09:45;-2.00;99.90
10010;DHT22;5044;48.652;9.250;2023-03-16T02:12:15;-2.00;99.90
10010;DHT22;5044;48.652;9.250;2023-03-16T02:14:45;-2.00;99.90
10010;DHT22;5044;48.652;9.250;2023-03-16T02:17:13;-2.00;99.90
10010;DHT22;5044;48.652;9.250;2023-03-16T02:19:49;-2.00;99.90
10010;DHT22;5044;48.652;9.250;2023-03-16T02:22:19;-2.00;99.90
10010;DHT22;5044;48.652;9.250;2023-03-16T02:24:49;-2.00;99.90
10010;DHT22;5044;48.652;9.250;2023-03-16T02:27:22;-2.10;99.90
10010;DHT22;5044;48.652;9.250;2023-03-16T02:29:56;-2.00;99.90
10010;DHT22;5044;48.652;9.250;2023-03-16T02:32:25;-2.00;99.90
10010;DHT22;5044;48.652;9.250;2023-03-16T02:34:54;-1.90;99.90
10010;DHT22;5044;48.652;9.250;2023-03-16T02:37:20;-2.00;99.90
10010;DHT22;5044;48.652;9.250;2023-03-16T02:39:47;-2.00;99.90
10010;DHT22;5044;48.652;9.250;2023-03-16T02:42:16;-1.80;99.90
10010;DHT22;5044;48.652;9.250;2023-03-16T02:44:46;-1.80;99.90
10010;DHT22;5044;48.652;9.250;2023-03-16T02:47:22;-1.90;99.90
10010;DHT22;5044;48.652;9.250;2023-03-16T02:49:51;-1.90;99.90
10010;DHT22;5044;48.652;9.250;2023-03-16T02:52:18;-1.80;99.90
10010;DHT22;5044;48.652;9.250;2023-03-16T02:54:45;-2.00;99.90
10010;DHT22;5044;48.652;9.250;2023-03-16T02:57:12;-1.70;99.90
10010;DHT22;5044;48.652;9.250;2023-03-16T02:59:38;-1.90;99.90
10010;DHT22;5044;48.652;9.250;2023-03-16T03:02:06;-2.10;99.90
10010;DHT22;5044;48.652;9.250;2023-03-16T03:04:34;-1.00;99.90
10010;DHT22;5044;48.652;9.250;2023-03-16T03:07:01;-2.10;99.90
10010;DHT22;5044;48.652;9.250;2023-03-16T03:09:30;-1.50;99.90
10010;DHT22;5044;48.652;9.250;2023-03-16T03:11:58;-2.10;99.90
10010;DHT22;5044;48.652;9.250;2023-03-16T03:14:25;-2.20;99.90
10010;DHT22;5044;48.652;9.250;2023-03-16T03:16:53;-2.20;99.90
10010;DHT22;5044;48.652;9.250;2023-03-16T03:19:21;-2.20;99.90
10010;DHT22;5044;48.652;9.250;2023-03-16T03:21:50;-2.20;99.90
10010;DHT22;5044;48.652;9.250;2023-03-16T03:24:22;-1.70;99.90
10010;DHT22;5044;48.652;9.250;2023-03-16T03:26:49;-2.20;99.90
10010;DHT22;5044;48.652;9.250;2023-03-16T03:29:17;-2.20;99.90
10010;DHT22;5044;48.652;9.250;2023-03-16T03:31:45;-2.10;99.90
10010;DHT22;5044;48.652;9.250;2023-03-16T03:34:11;-2.20;99.90
10010;DHT22;5044;48.652;9.250;2023-03-16T03:36:38;-2.20;99.90
10010;DHT22;5044;48.652;9.250;2023-03-16T03:39:07;-2.30;99.90
10010;DHT22;5044;48.652;9.250;2023-03-16T03:41:34;-2.30;99.90
10010;DHT22;5044;48.652;9.250;2023-03-16T03:44:01;-2.30;99.90
10010;DHT22;5044;48.652;9.250;2023-03-16T03:46:29;-2.30;99.90
10010;DHT22;5044;48.652;9.250;2023-03-16T03:48:56;-2.40;99.90
10010;DHT22;5044;48.652;9.250;2023-03-16T03:51:30;-2.40;99.90
10010;DHT22;5044;48.652;9.250;2023-03-16T03:53:57;-2.40;99.90
10010;DHT22;5044;48.652;9.250;2023-03-16T03:56:26;-2.40;99.90
10010;DHT22;5044;48.652;9.250;2023-03-16T03:58:52;-2.40;99.90
10010;DHT22;5044;48.652;9.250;2023-03-16T04:01:19;-2.30;99.90
10010;DHT22;5044;48.652;9.250;2023-03-16T04:03:47;-2.30;99.90
10010;DHT22;5044;48.652;9.250;2023-03-16T04:06:14;-2.40;99.90
10010;DHT22;5044;48.652;9.250;2023-03-16T04:08:42;-2.40;99.90
10010;DHT22;5044;48.652;9.250;2023-03-16T04:11:09;-2.30;99.90
10010;DHT22;5044;48.652;9.250;2023-03-16T04:13:37;-2.30;99.90
10010;DHT22;5044;48.652;9.250;2023-03-16T04:16:05;-2.30;99.90
10010;DHT22;5044;48.652;9.250;2023-03-16T04:18:31;-2.30;99.90
10010;DHT22;5044;48.652;9.250;2023-03-16T04:21:03;-2.30;99.90
10010;DHT22;5044;48.652;9.250;2023-03-16T04:23:31;-2.40;99.90
10010;DHT22;5044;48.652;9.250;2023-03-16T04:25:59;-2.40;99.90
10010;DHT22;5044;48.652;9.250;2023-03-16T04:28:30;-2.10;99.90
10010;DHT22;5044;48.652;9.250;2023-03-16T04:31:02;-2.40;99.90
10010;DHT22;5044;48.652;9.250;2023-03-16T04:33:30;-1.80;99.90
10010;DHT22;5044;48.652;9.250;2023-03-16T04:35:57;-2.40;99.90
10010;DHT22;5044;48.652;9.250;2023-03-16T04:38:24;-2.30;99.90
10010;DHT22;5044;48.652;9.250;2023-03-16T04:40:51;-2.30;99.90
10010;DHT22;5044;48.652;9.250;2023-03-16T04:43:18;-2.30;99.90
10010;DHT22;5044;48.652;9.250;2023-03-16T04:45:45;-2.30;99.90
10010;DHT22;5044;48.652;9.250;2023-03-16T04:48:13;-2.30;99.90
10010;DHT22;5044;48.652;9.250;2023-03-16T04:50:40;-2.40;99.90
10010;DHT22;5044;48.652;9.250;2023-03-16T04:53:07;-2.40;99.90
10010;DHT22;5044;48.652;9.250;2023-03-16T04:55:34;-2.40;99.90
10010;DHT22;5044;48.652;9.250;2023-03-16T04:58:00;-2.40;99.90
10010;DHT22;5044;48.652;9.250;2023-03-16T05:00:30;-2.40;99.90
10010;DHT22;5044;48.652;9.250;2023-03-16T05:02:58;-2.30;99.90
10010;DHT22;5044;48.652;9.250;2023-03-16T05:05:26;-2.30;99.90
10010;DHT22;5044;48.652;9.250;2023-03-16T05:07:53;-2.10;99.90
10010;DHT22;5044;48.652;9.250;2023-03-16T05:10:19;-2.30;99.90
10010;DHT22;5044;48.652;9.250;2023-03-16T05:12:46;-2.40;99.90
10010;DHT22;5044;48.652;9.250;2023-03-16T05:15:13;-2.30;99.90
10010;DHT22;5044;48.652;9.250;2023-03-16T05:17:41;-2.40;99.90
10010;DHT22;5044;48.652;9.250;2023-03-16T05:20:09;-2.40;99.90
10010;DHT22;5044;48.652;9.250;2023-03-16T05:22:41;-2.30;99.90
10010;DHT22;5044;48.652;9.250;2023-03-16T05:25:08;-2.30;99.90
10010;DHT22;5044;48.652;9.250;2023-03-16T05:27:39;-2.40;99.90
10010;DHT22;5044;48.652;9.250;2023-03-16T05:30:07;-2.40;99.90
10010;DHT22;5044;48.652;9.250;2023-03-16T05:32:34;-2.40;99.90
10010;DHT22;5044;48.652;9.250;2023-03-16T05:35:01;-2.40;99.90
10010;DHT22;5044;48.652;9.250;2023-03-16T05:37:28;-2.40;99.90
10010;DHT22;5044;48.652;9.250;2023-03-16T05:39:57;-2.40;99.90
10010;DHT22;5044;48.652;9.250;2023-03-16T05:42:23;-2.30;99.90
10010;DHT22;5044;48.652;9.250;2023-03-16T05:44:51;-2.30;99.90
10010;DHT22;5044;48.652;9.250;2023-03-16T05:47:18;-2.20;99.90
10010;DHT22;5044;48.652;9.250;2023-03-16T05:49:45;-2.30;99.90
10010;DHT22;5044;48.652;9.250;2023-03-16T05:52:12;-2.30;99.90
10010;DHT22;5044;48.652;9.250;2023-03-16T05:54:38;-2.20;99.90
10010;DHT22;5044;48.652;9.250;2023-03-16T05:57:07;-2.20;99.90
10010;DHT22;5044;48.652;9.250;2023-03-16T05:59:34;-2.20;99.90
10010;DHT22;5044;48.652;9.250;2023-03-16T06:02:00;-2.20;99.90
10010;DHT22;5044;48.652;9.250;2023-03-16T06:04:27;-2.20;99.90
10010;DHT22;5044;48.652;9.250;2023-03-16T06:06:54;-2.30;99.90
10010;DHT22;5044;48.652;9.250;2023-03-16T06:09:21;-2.30;99.90
10010;DHT22;5044;48.652;9.250;2023-03-16T06:11:47;-2.30;99.90
10010;DHT22;5044;48.652;9.250;2023-03-16T06:14:15;-2.30;99.90
10010;DHT22;5044;48.652;9.250;2023-03-16T06:16:42;-2.20;99.90
10010;DHT22;5044;48.652;9.250;2023-03-16T06:19:09;-2.20;99.90
10010;DHT22;5044;48.652;9.250;2023-03-16T06:21:36;-2.20;99.90
10010;DHT22;5044;48.652;9.250;2023-03-16T06:24:03;-2.20;99.90
10010;DHT22;5044;48.652;9.250;2023-03-16T06:26:32;-2.20;99.90
10010;DHT22;5044;48.652;9.250;2023-03-16T06:28:59;-2.10;99.90
10010;DHT22;5044;48.652;9.250;2023-03-16T06:31:27;-2.00;99.90
10010;DHT22;5044;48.652;9.250;2023-03-16T06:33:53;-1.90;99.90
10010;DHT22;5044;48.652;9.250;2023-03-16T06:36:20;-1.80;99.90
10010;DHT22;5044;48.652;9.250;2023-03-16T06:38:47;-1.70;99.90
10010;DHT22;5044;48.652;9.250;2023-03-16T06:41:14;-1.60;99.90
10010;DHT22;5044;48.652;9.250;2023-03-16T06:43:48;-0.90;99.90
10010;DHT22;5044;48.652;9.250;2023-03-16T06:46:15;-1.30;99.90
10010;DHT22;5044;48.652;9.250;2023-03-16T06:48:44;-1.30;99.90
10010;DHT22;5044;48.652;9.250;2023-03-16T06:51:14;-1.80;99.90
10010;DHT22;5044;48.652;9.250;2023-03-16T06:53:41;-0.70;99.90
10010;DHT22;5044;48.652;9.250;2023-03-16T06:56:08;-1.00;99.90
10010;DHT22;5044;48.652;9.250;2023-03-16T06:58:35;-0.10;99.90
10010;DHT22;5044;48.652;9.250;2023-03-16T07:01:06;-0.70;99.90
10010;DHT22;5044;48.652;9.250;2023-03-16T07:03:35;-0.10;99.90
10010;DHT22;5044;48.652;9.250;2023-03-16T07:06:06;-0.40;99.90
10010;DHT22;5044;48.652;9.250;2023-03-16T07:08:34;-0.10;99.90
10010;DHT22;5044;48.652;9.250;2023-03-16T07:11:04;-0.10;99.90
10010;DHT22;5044;48.652;9.250;2023-03-16T07:13:35;0.20;99.90
10010;DHT22;5044;48.652;9.250;2023-03-16T07:16:08;0.40;99.90
10010;DHT22;5044;48.652;9.250;2023-03-16T07:18:39;0.50;99.90
10010;DHT22;5044;48.652;9.250;2023-03-16T07:21:18;0.70;99.90
10010;DHT22;5044;48.652;9.250;2023-03-16T07:23:51;1.30;99.90
10010;DHT22;5044;48.652;9.250;2023-03-16T07:26:23;1.50;99.90
10010;DHT22;5044;48.652;9.250;2023-03-16T07:28:59;1.30;99.90
10010;DHT22;5044;48.652;9.250;2023-03-16T07:31:39;1.30;99.90
10010;DHT22;5044;48.652;9.250;2023-03-16T07:34:22;1.60;99.90
10010;DHT22;5044;48.652;9.250;2023-03-16T07:37:18;1.80;99.90
10010;DHT22;5044;48.652;9.250;2023-03-16T07:39:59;2.30;99.90
10010;DHT22;5044;48.652;9.250;2023-03-16T07:42:59;2.10;99.90
10010;DHT22;5044;48.652;9.250;2023-03-16T07:45:40;3.50;99.90
10010;DHT22;5044;48.652;9.250;2023-03-16T07:48:37;3.50;99.90
10010;DHT22;5044;48.652;9.250;2023-03-16T07:54:55;3.00;99.90
10010;DHT22;5044;48.652;9.250;2023-03-16T07:58:11;3.30;99.90
10010;DHT22;5044;48.652;9.250;2023-03-16T08:01:25;3.70;99.90
10010;DHT22;5044;48.652;9.250;2023-03-16T08:07:46;4.00;99.90
10010;DHT22;5044;48.652;9.250;2023-03-16T08:17:27;4.70;99.90
10010;DHT22;5044;48.652;9.250;2023-03-16T08:54:32;8.60;98.30
10010;DHT22;5044;48.652;9.250;2023-03-16T08:57:19;8.20;97.60
10010;DHT22;5044;48.652;9.250;2023-03-16T09:00:06;8.10;93.50
10010;DHT22;5044;48.652;9.250;2023-03-16T09:02:38;8.50;96.00
10010;DHT22;5044;48.652;9.250;2023-03-16T09:05:39;8.60;96.80
10010;DHT22;5044;48.652;9.250;2023-03-16T09:08:30;9.00;95.70
10010;DHT22;5044;48.652;9.250;2023-03-16T09:11:43;9.30;93.60
10010;DHT22;5044;48.652;9.250;2023-03-16T09:14:36;9.60;93.40
10010;DHT22;5044;48.652;9.250;2023-03-16T09:17:17;9.60;93.30
10010;DHT22;5044;48.652;9.250;2023-03-16T09:20:32;10.10;92.40
10010;DHT22;5044;48.652;9.250;2023-03-16T09:23:16;10.20;88.80
10010;DHT22;5044;48.652;9.250;2023-03-16T09:26:30;10.50;89.90
10010;DHT22;5044;48.652;9.250;2023-03-16T09:28:57;10.40;76.90
10010;DHT22;5044;48.652;9.250;2023-03-16T09:31:55;10.60;87.80
10010;DHT22;5044;48.652;9.250;2023-03-16T09:34:47;11.00;84.70
10010;DHT22;5044;48.652;9.250;2023-03-16T09:38:06;11.40;81.70
10010;DHT22;5044;48.652;9.250;2023-03-16T09:41:00;11.50;80.80
10010;DHT22;5044;48.652;9.250;2023-03-16T09:47:08;11.60;79.80
10010;DHT22;5044;48.652;9.250;2023-03-16T09:49:57;11.50;72.00
10010;DHT22;5044;48.652;9.250;2023-03-16T09:56:01;12.70;77.00
10010;DHT22;5044;48.652;9.250;2023-03-16T09:58:37;12.70;70.10
10010;DHT22;5044;48.652;9.250;2023-03-16T10:02:39;13.40;71.70
10010;DHT22;5044;48.652;9.250;2023-03-16T10:08:10;13.10;69.50
10010;DHT22;5044;48.652;9.250;2023-03-16T10:14:32;13.50;66.00
10010;DHT22;5044;48.652;9.250;2023-03-16T10:33:57;14.10;60.10
10010;DHT22;5044;48.652;9.250;2023-03-16T10:36:53;14.40;59.80
10010;DHT22;5044;48.652;9.250;2023-03-16T10:39:46;14.50;60.60
10010;DHT22;5044;48.652;9.250;2023-03-16T10:42:40;14.60;60.00
10010;DHT22;5044;48.652;9.250;2023-03-16T10:45:40;14.80;58.10
10010;DHT22;5044;48.652;9.250;2023-03-16T10:48:47;14.70;57.40
10010;DHT22;5044;48.652;9.250;2023-03-16T10:51:44;15.20;60.00
10010;DHT22;5044;48.652;9.250;2023-03-16T10:54:39;15.60;59.90
10010;DHT22;5044;48.652;9.250;2023-03-16T10:57:36;15.80;56.90
10010;DHT22;5044;48.652;9.250;2023-03-16T11:01:46;15.90;57.40
10010;DHT22;5044;48.652;9.250;2023-03-16T11:03:53;15.80;56.20
10010;DHT22;5044;48.652;9.250;2023-03-16T11:06:53;15.90;55.10
10010;DHT22;5044;48.652;9.250;2023-03-16T11:10:11;15.80;55.90
10010;DHT22;5044;48.652;9.250;2023-03-16T11:12:46;16.50;57.10
10010;DHT22;5044;48.652;9.250;2023-03-16T11:15:47;16.10;52.80
10010;DHT22;5044;48.652;9.250;2023-03-16T11:18:42;15.90;54.40
10010;DHT22;5044;48.652;9.250;2023-03-16T11:28:42;17.00;55.20
10010;DHT22;5044;48.652;9.250;2023-03-16T12:19:40;18.30;49.30
10010;DHT22;5044;48.652;9.250;2023-03-16T12:22:15;18.10;50.60
10010;DHT22;5044;48.652;9.250;2023-03-16T12:24:44;18.10;50.10
10010;DHT22;5044;48.652;9.250;2023-03-16T12:27:14;18.00;48.70
10010;DHT22;5044;48.652;9.250;2023-03-16T12:29:55;17.90;48.40
10010;DHT22;5044;48.652;9.250;2023-03-16T12:32:33;18.00;48.50
10010;DHT22;5044;48.652;9.250;2023-03-16T12:35:19;18.40;50.40
10010;DHT22;5044;48.652;9.250;2023-03-16T12:37:54;18.00;48.30
10010;DHT22;5044;48.652;9.250;2023-03-16T12:40:33;18.10;47.60
10010;DHT22;5044;48.652;9.250;2023-03-16T12:43:23;17.90;46.80
10010;DHT22;5044;48.652;9.250;2023-03-16T12:45:57;17.90;47.00
10010;DHT22;5044;48.652;9.250;2023-03-16T12:48:27;17.90;47.30
10010;DHT22;5044;48.652;9.250;2023-03-16T12:50:58;17.90;47.70
10010;DHT22;5044;48.652;9.250;2023-03-16T12:53:40;18.10;48.50
10010;DHT22;5044;48.652;9.250;2023-03-16T12:56:09;18.00;47.40
10010;DHT22;5044;48.652;9.250;2023-03-16T12:58:40;18.50;47.70
10010;DHT22;5044;48.652;9.250;2023-03-16T13:01:10;18.30;47.10
10010;DHT22;5044;48.652;9.250;2023-03-16T13:03:38;18.20;47.30
10010;DHT22;5044;48.652;9.250;2023-03-16T13:06:16;18.30;48.10
10010;DHT22;5044;48.652;9.250;2023-03-16T13:08:47;18.40;48.20
10010;DHT22;5044;48.652;9.250;2023-03-16T13:11:15;18.20;46.30
10010;DHT22;5044;48.652;9.250;2023-03-16T13:13:51;18.50;46.60
10010;DHT22;5044;48.652;9.250;2023-03-16T13:16:24;18.40;46.10
10010;DHT22;5044;48.652;9.250;2023-03-16T13:18:52;18.20;46.00
10010;DHT22;5044;48.652;9.250;2023-03-16T13:21:34;17.90;45.80
10010;DHT22;5044;48.652;9.250;2023-03-16T13:24:14;18.20;46.90
10010;DHT22;5044;48.652;9.250;2023-03-16T13:26:49;18.40;46.30
10010;DHT22;5044;48.652;9.250;2023-03-16T13:29:23;18.00;45.20
10010;DHT22;5044;48.652;9.250;2023-03-16T13:31:51;18.20;47.10
10010;DHT22;5044;48.652;9.250;2023-03-16T13:34:25;18.30;46.90
10010;DHT22;5044;48.652;9.250;2023-03-16T13:36:56;18.30;46.00
10010;DHT22;5044;48.652;9.250;2023-03-16T13:39:24;18.20;45.70
10010;DHT22;5044;48.652;9.250;2023-03-16T13:42:01;18.10;45.40
10010;DHT22;5044;48.652;9.250;2023-03-16T13:44:30;18.10;45.50
10010;DHT22;5044;48.652;9.250;2023-03-16T13:47:03;18.00;45.90
10010;DHT22;5044;48.652;9.250;2023-03-16T13:49:32;18.10;46.90
10010;DHT22;5044;48.652;9.250;2023-03-16T13:52:01;18.10;46.50
10010;DHT22;5044;48.652;9.250;2023-03-16T13:54:29;18.10;46.80
10010;DHT22;5044;48.652;9.250;2023-03-16T13:56:59;17.90;46.00
10010;DHT22;5044;48.652;9.250;2023-03-16T13:59:28;18.00;46.90
10010;DHT22;5044;48.652;9.250;2023-03-16T14:01:57;17.80;47.00
10010;DHT22;5044;48.652;9.250;2023-03-16T14:04:28;17.90;47.30
10010;DHT22;5044;48.652;9.250;2023-03-16T14:06:57;17.80;46.10
10010;DHT22;5044;48.652;9.250;2023-03-16T14:09:27;17.30;45.30
10010;DHT22;5044;48.652;9.250;2023-03-16T14:11:56;17.30;45.10
10010;DHT22;5044;48.652;9.250;2023-03-16T14:14:26;17.70;46.20
10010;DHT22;5044;48.652;9.250;2023-03-16T14:16:59;18.00;46.30
10010;DHT22;5044;48.652;9.250;2023-03-16T14:19:33;18.00;45.20
10010;DHT22;5044;48.652;9.250;2023-03-16T14:22:11;17.90;45.00
10010;DHT22;5044;48.652;9.250;2023-03-16T14:24:40;18.10;44.30
10010;DHT22;5044;48.652;9.250;2023-03-16T14:27:16;17.70;43.30
10010;DHT22;5044;48.652;9.250;2023-03-16T14:29:43;17.70;44.10
10010;DHT22;5044;48.652;9.250;2023-03-16T14:32:22;17.60;44.10
10010;DHT22;5044;48.652;9.250;2023-03-16T14:34:53;17.60;43.80
10010;DHT22;5044;48.652;9.250;2023-03-16T14:37:33;17.30;43.30
10010;DHT22;5044;48.652;9.250;2023-03-16T14:40:04;17.60;44.20
10010;DHT22;5044;48.652;9.250;2023-03-16T14:42:32;17.60;44.10
10010;DHT22;5044;48.652;9.250;2023-03-16T14:45:00;17.90;45.10
10010;DHT22;5044;48.652;9.250;2023-03-16T14:47:30;18.00;45.40
10010;DHT22;5044;48.652;9.250;2023-03-16T14:50:06;18.00;45.40
10010;DHT22;5044;48.652;9.250;2023-03-16T14:52:33;17.60;44.60
10010;DHT22;5044;48.652;9.250;2023-03-16T14:55:00;17.60;45.40
10010;DHT22;5044;48.652;9.250;2023-03-16T14:57:36;17.70;45.50
10010;DHT22;5044;48.652;9.250;2023-03-16T15:00:06;17.80;46.20
10010;DHT22;5044;48.652;9.250;2023-03-16T15:02:34;17.70;45.60
10010;DHT22;5044;48.652;9.250;2023-03-16T15:05:01;17.70;46.10
10010;DHT22;5044;48.652;9.250;2023-03-16T15:07:30;17.40;45.60
10010;DHT22;5044;48.652;9.250;2023-03-16T15:10:01;17.20;45.40
10010;DHT22;5044;48.652;9.250;2023-03-16T15:12:30;17.30;46.10
10010;DHT22;5044;48.652;9.250;2023-03-16T15:15:00;17.30;46.50
10010;DHT22;5044;48.652;9.250;2023-03-16T15:17:44;17.10;46.30
10010;DHT22;5044;48.652;9.250;2023-03-16T15:20:13;17.10;46.50
10010;DHT22;5044;48.652;9.250;2023-03-16T15:22:41;16.90;46.00
10010;DHT22;5044;48.652;9.250;2023-03-16T15:25:22;16.70;45.50
10010;DHT22;5044;48.652;9.250;2023-03-16T15:27:51;16.80;46.80
10010;DHT22;5044;48.652;9.250;2023-03-16T15:30:22;16.50;44.80
10010;DHT22;5044;48.652;9.250;2023-03-16T15:32:50;16.40;46.20
10010;DHT22;5044;48.652;9.250;2023-03-16T15:35:17;16.50;46.80
10010;DHT22;5044;48.652;9.250;2023-03-16T15:37:45;16.50;46.90
10010;DHT22;5044;48.652;9.250;2023-03-16T15:40:18;16.30;46.60
10010;DHT22;5044;48.652;9.250;2023-03-16T15:42:45;16.30;46.80
10010;DHT22;5044;48.652;9.250;2023-03-16T15:45:15;16.00;46.20
10010;DHT22;5044;48.652;9.250;2023-03-16T15:47:48;16.10;47.20
10010;DHT22;5044;48.652;9.250;2023-03-16T15:50:17;16.20;48.30
10010;DHT22;5044;48.652;9.250;2023-03-16T15:52:47;16.10;49.00
10010;DHT22;5044;48.652;9.250;2023-03-16T15:55:18;15.90;48.70
10010;DHT22;5044;48.652;9.250;2023-03-16T15:57:46;15.70;49.10
10010;DHT22;5044;48.652;9.250;2023-03-16T16:00:26;15.60;49.30
10010;DHT22;5044;48.652;9.250;2023-03-16T16:02:57;15.50;49.40
10010;DHT22;5044;48.652;9.250;2023-03-16T16:05:28;15.40;49.20
10010;DHT22;5044;48.652;9.250;2023-03-16T16:07:57;15.30;49.10
10010;DHT22;5044;48.652;9.250;2023-03-16T16:10:25;15.10;49.40
10010;DHT22;5044;48.652;9.250;2023-03-16T16:12:53;15.10;49.30
10010;DHT22;5044;48.652;9.250;2023-03-16T16:15:23;15.00;50.10
10010;DHT22;5044;48.652;9.250;2023-03-16T16:17:55;14.80;50.00
10010;DHT22;5044;48.652;9.250;2023-03-16T16:20:25;14.70;50.20
10010;DHT22;5044;48.652;9.250;2023-03-16T16:22:54;14.50;49.80
10010;DHT22;5044;48.652;9.250;2023-03-16T16:25:26;14.50;50.80
10010;DHT22;5044;48.652;9.250;2023-03-16T16:27:54;14.20;50.50
10010;DHT22;5044;48.652;9.250;2023-03-16T16:30:23;14.20;51.40
10010;DHT22;5044;48.652;9.250;2023-03-16T16:32:51;14.20;51.50
10010;DHT22;5044;48.652;9.250;2023-03-16T16:35:21;13.90;51.60
10010;DHT22;5044;48.652;9.250;2023-03-16T16:37:51;13.80;52.60
10010;DHT22;5044;48.652;9.250;2023-03-16T16:40:20;14.00;53.40
10010;DHT22;5044;48.652;9.250;2023-03-16T16:42:49;13.70;53.60
10010;DHT22;5044;48.652;9.250;2023-03-16T16:45:18;13.60;54.60
10010;DHT22;5044;48.652;9.250;2023-03-16T16:47:46;13.60;55.40
10010;DHT22;5044;48.652;9.250;2023-03-16T16:50:18;13.50;55.80
10010;DHT22;5044;48.652;9.250;2023-03-16T16:52:47;13.50;56.10
10010;DHT22;5044;48.652;9.250;2023-03-16T16:55:15;13.30;56.00
10010;DHT22;5044;48.652;9.250;2023-03-16T16:57:42;13.20;56.60
10010;DHT22;5044;48.652;9.250;2023-03-16T17:00:19;13.20;57.70
10010;DHT22;5044;48.652;9.250;2023-03-16T17:02:48;13.10;57.80
10010;DHT22;5044;48.652;9.250;2023-03-16T17:05:20;13.00;58.00
10010;DHT22;5044;48.652;9.250;2023-03-16T17:07:49;12.90;58.80
10010;DHT22;5044;48.652;9.250;2023-03-16T17:10:19;12.70;59.00
10010;DHT22;5044;48.652;9.250;2023-03-16T17:12:47;12.70;60.40
10010;DHT22;5044;48.652;9.250;2023-03-16T17:15:22;12.50;60.40
10010;DHT22;5044;48.652;9.250;2023-03-16T17:18:00;12.40;61.10
10010;DHT22;5044;48.652;9.250;2023-03-16T17:20:27;12.30;61.70
10010;DHT22;5044;48.652;9.250;2023-03-16T17:22:57;12.20;62.40
10010;DHT22;5044;48.652;9.250;2023-03-16T17:25:25;12.00;61.50
10010;DHT22;5044;48.652;9.250;2023-03-16T17:27:53;12.00;62.20
10010;DHT22;5044;48.652;9.250;2023-03-16T17:30:23;11.80;64.00
10010;DHT22;5044;48.652;9.250;2023-03-16T17:32:52;11.70;63.60
10010;DHT22;5044;48.652;9.250;2023-03-16T17:35:22;11.70;65.10
10010;DHT22;5044;48.652;9.250;2023-03-16T17:37:49;11.50;64.60
10010;DHT22;5044;48.652;9.250;2023-03-16T17:40:19;11.40;64.70
10010;DHT22;5044;48.652;9.250;2023-03-16T17:42:47;11.30;66.90
10010;DHT22;5044;48.652;9.250;2023-03-16T17:45:17;11.20;67.10
10010;DHT22;5044;48.652;9.250;2023-03-16T17:47:44;11.20;68.60
10010;DHT22;5044;48.652;9.250;2023-03-16T17:50:17;11.10;68.60
10010;DHT22;5044;48.652;9.250;2023-03-16T17:52:45;11.00;68.30
10010;DHT22;5044;48.652;9.250;2023-03-16T17:55:13;10.90;67.70
10010;DHT22;5044;48.652;9.250;2023-03-16T17:57:47;10.80;69.50
10010;DHT22;5044;48.652;9.250;2023-03-16T18:00:21;10.70;69.40
10010;DHT22;5044;48.652;9.250;2023-03-16T18:02:51;10.50;69.80
10010;DHT22;5044;48.652;9.250;2023-03-16T18:05:20;10.50;71.80
10010;DHT22;5044;48.652;9.250;2023-03-16T18:07:48;10.60;70.30
10010;DHT22;5044;48.652;9.250;2023-03-16T18:10:15;10.40;71.40
10010;DHT22;5044;48.652;9.250;2023-03-16T18:12:43;10.30;72.20
10010;DHT22;5044;48.652;9.250;2023-03-16T18:15:15;10.20;71.60
10010;DHT22;5044;48.652;9.250;2023-03-16T18:17:44;10.60;73.30
10010;DHT22;5044;48.652;9.250;2023-03-16T18:20:20;10.00;73.00
10010;DHT22;5044;48.652;9.250;2023-03-16T18:22:47;10.10;74.20
10010;DHT22;5044;48.652;9.250;2023-03-16T18:25:26;10.00;73.90
10010;DHT22;5044;48.652;9.250;2023-03-16T18:27:53;9.90;74.90
10010;DHT22;5044;48.652;9.250;2023-03-16T18:30:21;9.80;75.10
10010;DHT22;5044;48.652;9.250;2023-03-16T18:32:48;9.70;75.80
10010;DHT22;5044;48.652;9.250;2023-03-16T18:35:17;9.60;73.80
10010;DHT22;5044;48.652;9.250;2023-03-16T18:37:44;9.60;76.30